Huvudsida
METAR-TAF:

METAR-TAF

Flygplatser :

Hasviks flygplats

Hasviks, Norge

latitud: 70-29N, longitud: 022-09E, höjd: 10 m

Aktuellt väderrapport

Denna rapport gjordes för 28 minuter sedan, klockan 13:20 UTC
Vind 17 kt från väst/nordväst
Temperatur -3°C
Fuktighet 74%
Tryck 1009 hPa
Sikt 10 km eller mer
Få moln på en höjd av 1700 ft
Spridda moln på en höjd av 2800 ft
Brutna moln på en höjd av 3700 ft
lätta snöbyar

METAR: ENHK 091320Z 29017KT 9999 -SHSN FEW017 SCT028 BKN037 M03/M07 Q1009

Tid: 15:48 (13:48 UTC)


TAF: saknas

Aktuella väderrapporter och prognoser från 4000 flygplatser (METAR- och TAF-rapporter).

De tillgängliga stationerna syns som gula och röda prickar på kartan.

För musen över prickarna för att se namnen på stationerna.

Klicka sedan för att få väderrapporter och prognoser.

För att ändra kartan: Klicka på de gröna knapparna med ett svart kors på för att zooma in; den gröna knappen med ett streck på för att zooma ut; eller på de gröna pilarna för angränsande kartor.


METAR-TAF: